createdAt,value
2018-09-13T00:01:51.370Z,16.60
2018-09-13T00:04:19.838Z,16.50
2018-09-13T00:06:48.257Z,16.40
2018-09-13T00:09:16.710Z,16.40
2018-09-13T00:11:45.146Z,16.30
2018-09-13T00:14:13.626Z,16.30
2018-09-13T00:16:42.026Z,16.30
2018-09-13T00:19:10.485Z,16.40
2018-09-13T00:21:38.923Z,16.40
2018-09-13T00:24:07.350Z,16.40
2018-09-13T00:26:35.769Z,16.30
2018-09-13T00:29:04.210Z,16.30
2018-09-13T00:31:32.610Z,16.30
2018-09-13T00:34:01.082Z,16.20
2018-09-13T00:36:29.493Z,16.20
2018-09-13T00:38:57.921Z,16.20
2018-09-13T00:41:26.341Z,16.10
2018-09-13T00:43:54.794Z,16.10
2018-09-13T00:46:23.242Z,16.10
2018-09-13T00:48:51.705Z,16.10
2018-09-13T00:51:20.145Z,16.00
2018-09-13T00:53:48.605Z,16.00
2018-09-13T00:56:17.017Z,15.90
2018-09-13T00:58:45.461Z,15.90
2018-09-13T01:01:13.873Z,15.90
2018-09-13T01:03:42.330Z,15.80
2018-09-13T01:06:10.730Z,15.80
2018-09-13T01:08:39.214Z,15.70
2018-09-13T01:11:07.744Z,15.70
2018-09-13T01:13:36.179Z,15.70
2018-09-13T01:16:04.601Z,15.60
2018-09-13T01:18:33.063Z,15.60
2018-09-13T01:21:01.804Z,15.60
2018-09-13T01:23:30.270Z,15.60
2018-09-13T01:25:58.793Z,15.50
2018-09-13T01:28:27.221Z,15.50
2018-09-13T01:30:55.670Z,15.50
2018-09-13T01:33:24.109Z,15.40
2018-09-13T01:35:52.545Z,15.50
2018-09-13T01:38:20.998Z,15.50
2018-09-13T01:40:49.410Z,15.50
2018-09-13T01:43:17.849Z,15.50
2018-09-13T01:45:46.267Z,15.50
2018-09-13T01:48:14.677Z,15.40
2018-09-13T01:50:43.197Z,15.30
2018-09-13T01:53:11.643Z,15.30
2018-09-13T01:55:40.130Z,15.20
2018-09-13T01:58:08.630Z,15.30
2018-09-13T02:00:37.113Z,15.30
2018-09-13T02:03:05.566Z,15.30
2018-09-13T02:05:34.034Z,15.30
2018-09-13T02:08:02.478Z,15.30
2018-09-13T02:10:30.969Z,15.30
2018-09-13T02:12:59.414Z,15.20
2018-09-13T02:15:27.882Z,15.10
2018-09-13T02:17:56.302Z,15.00
2018-09-13T02:20:24.754Z,15.00
2018-09-13T02:22:53.186Z,15.10
2018-09-13T02:25:21.637Z,15.10
2018-09-13T02:27:50.070Z,15.10
2018-09-13T02:30:18.526Z,15.00
2018-09-13T02:32:46.962Z,14.90
2018-09-13T02:35:15.408Z,14.90
2018-09-13T02:37:43.841Z,15.00
2018-09-13T02:40:12.309Z,15.00
2018-09-13T02:42:40.766Z,14.90
2018-09-13T02:45:09.227Z,14.90
2018-09-13T02:47:37.700Z,14.90
2018-09-13T02:50:06.174Z,15.00
2018-09-13T02:52:34.613Z,15.00
2018-09-13T02:55:03.096Z,14.90
2018-09-13T02:57:31.527Z,14.90
2018-09-13T03:00:00.021Z,15.00
2018-09-13T03:02:28.453Z,15.00
2018-09-13T03:04:56.901Z,15.00
2018-09-13T03:07:25.391Z,15.00
2018-09-13T03:09:53.838Z,15.00
2018-09-13T03:12:22.319Z,14.90
2018-09-13T03:14:50.771Z,14.90
2018-09-13T03:17:19.207Z,14.90
2018-09-13T03:19:48.498Z,14.90
2018-09-13T03:22:16.918Z,14.90
2018-09-13T03:24:45.387Z,15.00
2018-09-13T03:27:13.831Z,15.00
2018-09-13T03:29:42.324Z,15.00
2018-09-13T03:32:10.795Z,15.10
2018-09-13T03:34:39.251Z,15.00
2018-09-13T03:37:07.739Z,15.00
2018-09-13T03:39:36.177Z,15.00
2018-09-13T03:42:04.726Z,15.00
2018-09-13T03:44:33.191Z,15.00
2018-09-13T03:47:01.660Z,15.00
2018-09-13T03:49:30.094Z,15.00
2018-09-13T03:51:58.558Z,15.00
2018-09-13T03:54:26.994Z,15.10
2018-09-13T03:56:55.473Z,15.20
2018-09-13T03:59:23.966Z,15.20
2018-09-13T04:01:52.445Z,15.20
2018-09-13T04:04:20.957Z,15.20
2018-09-13T04:06:49.448Z,15.30
2018-09-13T04:09:17.925Z,15.30
2018-09-13T04:11:46.391Z,15.30
2018-09-13T04:14:14.870Z,15.30
2018-09-13T04:16:43.322Z,15.30
2018-09-13T04:19:11.798Z,15.30
2018-09-13T04:21:40.290Z,15.20
2018-09-13T04:24:08.726Z,15.20
2018-09-13T04:26:37.192Z,15.30
2018-09-13T04:29:05.694Z,15.20
2018-09-13T04:31:34.178Z,15.30
2018-09-13T04:34:02.625Z,15.30
2018-09-13T04:36:31.097Z,15.30
2018-09-13T04:38:59.534Z,15.30
2018-09-13T04:41:28.022Z,15.30
2018-09-13T04:43:56.451Z,15.30
2018-09-13T04:46:24.911Z,15.30
2018-09-13T04:48:53.346Z,15.30
2018-09-13T04:51:21.805Z,15.20
2018-09-13T04:53:50.241Z,15.30
2018-09-13T04:56:18.731Z,15.20
2018-09-13T04:58:47.218Z,15.20
2018-09-13T05:01:15.670Z,15.20
2018-09-13T05:03:44.138Z,15.20
2018-09-13T05:06:12.598Z,15.20
2018-09-13T05:08:41.039Z,15.20
2018-09-13T05:11:09.523Z,15.20
2018-09-13T05:13:37.954Z,15.20
2018-09-13T05:16:06.429Z,15.20
2018-09-13T05:18:34.881Z,15.20
2018-09-13T05:21:03.337Z,15.30
2018-09-13T05:23:31.776Z,15.30
2018-09-13T05:26:00.245Z,15.20
2018-09-13T05:28:28.671Z,15.20
2018-09-13T05:30:57.133Z,15.10
2018-09-13T05:33:25.678Z,15.20
2018-09-13T05:35:54.155Z,15.20
2018-09-13T05:38:22.597Z,15.20
2018-09-13T05:40:51.065Z,15.30
2018-09-13T05:43:19.552Z,15.30
2018-09-13T05:45:48.057Z,15.30
2018-09-13T05:48:16.483Z,15.30
2018-09-13T05:50:45.010Z,15.30
2018-09-13T05:53:13.593Z,15.40
2018-09-13T05:55:42.029Z,15.30
2018-09-13T05:58:10.524Z,15.20
2018-09-13T06:00:38.957Z,15.20
2018-09-13T06:03:07.409Z,15.20
2018-09-13T06:05:35.849Z,15.20
2018-09-13T06:08:04.333Z,15.20
2018-09-13T06:10:32.806Z,15.20
2018-09-13T06:13:01.330Z,15.20
2018-09-13T06:15:29.781Z,15.30
2018-09-13T06:17:58.230Z,15.30
2018-09-13T06:20:26.667Z,15.40
2018-09-13T06:22:55.146Z,15.40
2018-09-13T06:25:23.906Z,15.50
2018-09-13T06:27:52.382Z,15.50
2018-09-13T06:30:20.829Z,15.60
2018-09-13T06:32:49.286Z,15.60
2018-09-13T06:35:17.726Z,15.70
2018-09-13T06:37:46.190Z,15.80
2018-09-13T06:40:14.641Z,15.90
2018-09-13T06:42:43.130Z,16.00
2018-09-13T06:45:11.570Z,16.10
2018-09-13T06:47:40.032Z,16.20
2018-09-13T06:50:08.486Z,16.30
2018-09-13T06:52:36.953Z,16.40
2018-09-13T06:55:05.675Z,16.40
2018-09-13T06:57:34.151Z,16.50
2018-09-13T07:00:02.791Z,16.50
2018-09-13T07:02:31.335Z,16.70
2018-09-13T07:04:59.712Z,16.80
2018-09-13T07:07:28.288Z,16.90
2018-09-13T07:09:56.714Z,17.00
2018-09-13T07:12:25.210Z,17.10
2018-09-13T07:14:53.647Z,17.10
2018-09-13T07:17:22.098Z,17.00
2018-09-13T07:19:50.521Z,17.10
2018-09-13T07:22:18.994Z,17.20
2018-09-13T07:24:47.424Z,17.20
2018-09-13T07:27:15.869Z,17.20
2018-09-13T07:29:44.306Z,17.30
2018-09-13T07:32:12.761Z,17.40
2018-09-13T07:34:41.206Z,17.50
2018-09-13T07:37:09.679Z,17.60
2018-09-13T07:39:38.141Z,17.70
2018-09-13T07:42:06.675Z,17.80
2018-09-13T07:44:35.172Z,17.90
2018-09-13T07:47:03.653Z,18.00
2018-09-13T07:49:32.187Z,18.10
2018-09-13T07:52:00.616Z,18.10
2018-09-13T07:54:29.046Z,18.10
2018-09-13T07:56:57.478Z,18.20
2018-09-13T07:59:25.918Z,18.70
2018-09-13T08:01:54.366Z,19.10
2018-09-13T08:04:22.804Z,19.40
2018-09-13T08:06:51.270Z,19.50
2018-09-13T08:09:19.710Z,19.50
2018-09-13T08:11:48.214Z,19.60
2018-09-13T08:14:16.605Z,19.60
2018-09-13T08:16:45.051Z,19.50
2018-09-13T08:19:13.501Z,19.70
2018-09-13T08:21:41.931Z,19.90
2018-09-13T08:24:10.366Z,19.80
2018-09-13T08:26:38.796Z,19.90
2018-09-13T08:29:07.278Z,19.90
2018-09-13T08:31:35.714Z,20.10
2018-09-13T08:34:04.181Z,20.00
2018-09-13T08:36:32.614Z,20.00
2018-09-13T08:39:01.077Z,20.00
2018-09-13T08:41:29.494Z,19.70
2018-09-13T08:43:58.034Z,19.60
2018-09-13T08:46:26.449Z,19.60
2018-09-13T08:48:54.885Z,19.70
2018-09-13T08:51:23.373Z,19.90
2018-09-13T08:53:51.808Z,19.80
2018-09-13T08:56:20.217Z,19.80
2018-09-13T08:58:48.850Z,19.90
2018-09-13T09:01:17.266Z,20.20
2018-09-13T09:03:45.721Z,20.10
2018-09-13T09:06:14.172Z,20.10
2018-09-13T09:08:42.590Z,20.10
2018-09-13T09:11:11.054Z,20.10
2018-09-13T09:13:39.546Z,19.70
2018-09-13T09:16:07.954Z,19.70
2018-09-13T09:18:36.452Z,19.80
2018-09-13T09:21:04.975Z,19.50
2018-09-13T09:23:33.429Z,19.50
2018-09-13T09:26:01.860Z,19.50
2018-09-13T09:28:30.306Z,19.70
2018-09-13T09:30:58.726Z,19.60
2018-09-13T09:33:27.163Z,19.60
2018-09-13T09:35:55.578Z,19.50
2018-09-13T09:38:24.016Z,19.60
2018-09-13T09:40:52.443Z,19.60
2018-09-13T09:43:20.889Z,19.80
2018-09-13T09:45:49.330Z,19.90
2018-09-13T09:48:17.778Z,20.10
2018-09-13T09:50:46.201Z,19.90
2018-09-13T09:53:14.675Z,20.10
2018-09-13T09:55:43.106Z,20.30
2018-09-13T09:58:11.578Z,20.50
2018-09-13T10:00:45.515Z,20.60
2018-09-13T10:03:14.071Z,20.80
2018-09-13T10:05:42.486Z,20.90
2018-09-13T10:08:10.944Z,20.60
2018-09-13T10:10:39.489Z,20.70
2018-09-13T10:13:07.950Z,20.90
2018-09-13T10:15:41.507Z,20.60
2018-09-13T10:18:15.297Z,20.50
2018-09-13T10:20:49.054Z,20.50
2018-09-13T10:23:22.699Z,20.70
2018-09-13T10:25:56.490Z,21.00
2018-09-13T10:28:30.272Z,21.40
2018-09-13T10:31:04.073Z,21.30
2018-09-13T10:33:37.899Z,20.60
2018-09-13T10:36:11.615Z,20.60
2018-09-13T10:38:45.299Z,21.00
2018-09-13T10:41:19.181Z,21.10
2018-09-13T10:43:52.908Z,21.30
2018-09-13T10:46:25.435Z,21.10
2018-09-13T10:48:59.282Z,20.60
2018-09-13T10:51:33.026Z,20.40
2018-09-13T10:54:10.681Z,20.70
2018-09-13T10:56:39.372Z,20.90
2018-09-13T10:59:07.909Z,21.10
2018-09-13T11:01:36.378Z,21.30
2018-09-13T11:04:04.912Z,21.30
2018-09-13T11:06:33.410Z,21.40
2018-09-13T11:09:01.869Z,21.30
2018-09-13T11:11:30.333Z,21.00
2018-09-13T11:14:03.757Z,21.00
2018-09-13T11:16:32.210Z,21.10
2018-09-13T11:19:00.682Z,21.20
2018-09-13T11:21:29.168Z,21.30
2018-09-13T11:23:57.608Z,21.50
2018-09-13T11:26:26.029Z,21.60
2018-09-13T11:28:54.626Z,21.50
2018-09-13T11:31:23.094Z,21.90
2018-09-13T11:33:51.574Z,22.00
2018-09-13T11:36:20.001Z,22.20
2018-09-13T11:38:48.486Z,22.30
2018-09-13T11:41:16.928Z,22.50
2018-09-13T11:43:45.361Z,22.60
2018-09-13T11:46:13.845Z,22.50
2018-09-13T11:48:42.290Z,21.80
2018-09-13T11:51:10.734Z,21.70
2018-09-13T11:53:39.190Z,21.80
2018-09-13T11:56:07.778Z,21.90
2018-09-13T11:58:36.201Z,22.00
2018-09-13T12:01:04.706Z,22.00
2018-09-13T12:03:33.168Z,21.90
2018-09-13T12:06:01.610Z,22.00
2018-09-13T12:08:30.047Z,22.10
2018-09-13T12:10:58.531Z,21.90
2018-09-13T12:13:27.021Z,21.60
2018-09-13T12:15:55.481Z,21.70
2018-09-13T12:18:23.957Z,21.70
2018-09-13T12:20:52.370Z,21.60
2018-09-13T12:23:20.798Z,21.50
2018-09-13T12:25:49.259Z,21.70
2018-09-13T12:28:17.682Z,21.60
2018-09-13T12:30:46.163Z,21.30
2018-09-13T12:33:14.598Z,21.30
2018-09-13T12:35:43.067Z,21.20
2018-09-13T12:38:11.493Z,21.30
2018-09-13T12:40:39.950Z,21.40
2018-09-13T12:43:08.386Z,21.40
2018-09-13T12:45:36.831Z,21.40
2018-09-13T12:48:05.258Z,21.40
2018-09-13T12:50:33.706Z,21.50
2018-09-13T12:53:02.158Z,21.60
2018-09-13T12:55:35.926Z,21.60
2018-09-13T12:58:04.385Z,21.50
2018-09-13T13:00:32.887Z,21.40
2018-09-13T13:03:01.259Z,21.40
2018-09-13T13:05:29.723Z,21.40
2018-09-13T13:07:58.170Z,21.40
2018-09-13T13:10:26.633Z,21.40
2018-09-13T13:12:55.065Z,21.40
2018-09-13T13:15:23.510Z,21.40
2018-09-13T13:17:51.947Z,21.50
2018-09-13T13:20:20.387Z,21.40
2018-09-13T13:22:48.802Z,21.40
2018-09-13T13:25:17.255Z,21.60
2018-09-13T13:27:45.743Z,21.50
2018-09-13T13:30:14.117Z,21.40
2018-09-13T13:32:42.554Z,21.50
2018-09-13T13:35:10.992Z,21.60
2018-09-13T13:37:39.438Z,21.70
2018-09-13T13:40:08.022Z,21.80
2018-09-13T13:42:36.460Z,21.80
2018-09-13T13:45:04.945Z,21.80
2018-09-13T13:47:33.530Z,21.40
2018-09-13T13:50:01.847Z,21.00
2018-09-13T13:52:30.298Z,20.70
2018-09-13T13:54:58.717Z,20.60
2018-09-13T13:57:27.149Z,20.70
2018-09-13T13:59:55.625Z,20.90
2018-09-13T14:02:24.006Z,20.90
2018-09-13T14:04:52.426Z,21.00
2018-09-13T14:07:20.854Z,21.00
2018-09-13T14:09:49.299Z,21.10
2018-09-13T14:12:17.773Z,20.70
2018-09-13T14:14:46.194Z,20.70
2018-09-13T14:17:14.645Z,20.60
2018-09-13T14:19:43.073Z,20.50
2018-09-13T14:22:11.519Z,20.30
2018-09-13T14:24:39.933Z,20.30
2018-09-13T14:27:08.384Z,20.30
2018-09-13T14:29:36.822Z,20.20
2018-09-13T14:32:05.271Z,20.10
2018-09-13T14:34:33.682Z,20.00
2018-09-13T14:37:02.146Z,19.80
2018-09-13T14:39:30.562Z,19.80
2018-09-13T14:41:59.038Z,19.90
2018-09-13T14:44:27.456Z,19.80
2018-09-13T14:46:55.908Z,19.80
2018-09-13T14:49:24.318Z,19.80
2018-09-13T14:51:52.766Z,19.70
2018-09-13T14:54:21.189Z,19.70
2018-09-13T14:56:49.653Z,19.80
2018-09-13T14:59:18.074Z,19.90
2018-09-13T15:01:46.517Z,19.70
2018-09-13T15:04:14.957Z,19.60
2018-09-13T15:06:43.425Z,19.60
2018-09-13T15:09:12.910Z,19.70
2018-09-13T15:11:41.733Z,19.60
2018-09-13T15:14:10.244Z,19.70
2018-09-13T15:16:38.695Z,19.70
2018-09-13T15:19:07.164Z,19.50
2018-09-13T15:21:35.626Z,19.50
2018-09-13T15:24:04.094Z,19.50
2018-09-13T15:26:32.549Z,19.40
2018-09-13T15:29:00.985Z,19.30
2018-09-13T15:31:29.477Z,19.30
2018-09-13T15:33:57.881Z,19.30
2018-09-13T15:36:26.317Z,19.30
2018-09-13T15:38:54.791Z,19.20
2018-09-13T15:41:23.232Z,19.10
2018-09-13T15:43:52.146Z,19.00
2018-09-13T15:46:20.573Z,18.90
2018-09-13T15:48:49.027Z,18.70
2018-09-13T15:51:17.481Z,18.70
2018-09-13T15:53:45.938Z,18.70
2018-09-13T15:56:14.406Z,18.70
2018-09-13T15:58:42.900Z,18.80
2018-09-13T16:01:11.333Z,18.80
2018-09-13T16:03:39.797Z,18.70
2018-09-13T16:06:08.246Z,18.70
2018-09-13T16:08:36.719Z,18.70
2018-09-13T16:11:05.196Z,18.70
2018-09-13T16:13:33.673Z,18.70
2018-09-13T16:16:02.113Z,18.70
2018-09-13T16:18:30.576Z,18.70
2018-09-13T16:20:59.069Z,18.70
2018-09-13T16:23:27.494Z,18.80
2018-09-13T16:25:55.986Z,18.80
2018-09-13T16:28:24.413Z,18.80
2018-09-13T16:30:52.853Z,18.90
2018-09-13T16:33:21.367Z,18.90
2018-09-13T16:35:51.524Z,18.90
2018-09-13T16:38:29.195Z,18.80
2018-09-13T16:41:04.153Z,18.80
2018-09-13T16:43:38.034Z,18.80
2018-09-13T16:46:08.219Z,18.70
2018-09-13T16:48:44.439Z,18.70
2018-09-13T16:51:13.069Z,18.60
2018-09-13T16:53:41.552Z,18.60
2018-09-13T16:56:10.030Z,18.50
2018-09-13T16:58:38.499Z,18.40
2018-09-13T17:01:06.954Z,18.40
2018-09-13T17:03:35.414Z,18.40
2018-09-13T17:06:03.862Z,18.40
2018-09-13T17:08:32.329Z,18.30
2018-09-13T17:11:00.791Z,18.20
2018-09-13T17:13:29.236Z,18.20
2018-09-13T17:15:57.663Z,18.10
2018-09-13T17:18:26.132Z,18.10
2018-09-13T17:20:54.616Z,18.10
2018-09-13T17:23:23.085Z,18.00
2018-09-13T17:25:51.556Z,18.00
2018-09-13T17:28:20.006Z,17.90
2018-09-13T17:30:48.427Z,17.80
2018-09-13T17:33:16.874Z,17.80
2018-09-13T17:35:45.327Z,17.70
2018-09-13T17:38:13.762Z,17.70
2018-09-13T17:40:42.226Z,17.60
2018-09-13T17:43:10.786Z,17.70
2018-09-13T17:45:39.214Z,17.70
2018-09-13T17:48:07.799Z,17.60
2018-09-13T17:50:36.229Z,17.60
2018-09-13T17:53:04.703Z,17.60
2018-09-13T17:55:33.899Z,17.50
2018-09-13T17:58:03.670Z,17.50
2018-09-13T18:00:32.114Z,17.50
2018-09-13T18:03:00.566Z,17.50
2018-09-13T18:05:29.025Z,17.50
2018-09-13T18:07:57.454Z,17.40
2018-09-13T18:10:25.903Z,17.40
2018-09-13T18:12:54.397Z,17.30
2018-09-13T18:15:22.875Z,17.30
2018-09-13T18:17:51.314Z,17.20
2018-09-13T18:20:19.781Z,17.20
2018-09-13T18:22:48.225Z,17.10
2018-09-13T18:25:16.683Z,17.10
2018-09-13T18:27:45.094Z,17.10
2018-09-13T18:30:13.584Z,17.00
2018-09-13T18:32:42.025Z,17.10
2018-09-13T18:35:10.499Z,17.10
2018-09-13T18:37:38.935Z,17.20
2018-09-13T18:40:07.424Z,17.20
2018-09-13T18:42:35.848Z,17.10
2018-09-13T18:45:04.445Z,17.10
2018-09-13T18:47:32.890Z,17.00
2018-09-13T18:50:01.337Z,17.00
2018-09-13T18:52:29.803Z,16.90
2018-09-13T18:54:58.250Z,16.80
2018-09-13T18:57:26.744Z,16.70
2018-09-13T18:59:55.175Z,16.70
2018-09-13T19:02:23.594Z,16.70
2018-09-13T19:04:52.109Z,16.60
2018-09-13T19:07:20.541Z,16.50
2018-09-13T19:09:49.010Z,16.50
2018-09-13T19:12:17.481Z,16.50
2018-09-13T19:14:45.934Z,16.50
2018-09-13T19:17:14.409Z,16.50
2018-09-13T19:19:42.850Z,16.50
2018-09-13T19:22:11.274Z,16.60
2018-09-13T19:24:39.710Z,16.70
2018-09-13T19:27:08.127Z,16.70
2018-09-13T19:29:36.546Z,16.60
2018-09-13T19:32:05.006Z,16.50
2018-09-13T19:34:33.446Z,16.50
2018-09-13T19:37:01.893Z,16.40
2018-09-13T19:39:30.387Z,16.40
2018-09-13T19:41:58.858Z,16.40
2018-09-13T19:44:27.283Z,16.30
2018-09-13T19:46:55.718Z,16.40
2018-09-13T19:49:24.135Z,16.40
2018-09-13T19:51:52.575Z,16.50
2018-09-13T19:54:20.991Z,16.50
2018-09-13T19:56:49.465Z,16.50
2018-09-13T19:59:17.879Z,16.50
2018-09-13T20:01:46.315Z,16.40
2018-09-13T20:04:14.753Z,16.40
2018-09-13T20:06:43.195Z,16.50
2018-09-13T20:09:12.322Z,16.50
2018-09-13T20:11:40.814Z,16.50
2018-09-13T20:14:09.366Z,16.50
2018-09-13T20:16:37.821Z,16.50
2018-09-13T20:19:06.275Z,16.60
2018-09-13T20:21:34.722Z,16.50
2018-09-13T20:24:03.129Z,16.50
2018-09-13T20:26:31.558Z,16.50
2018-09-13T20:29:00.896Z,16.50
2018-09-13T20:31:29.465Z,16.40
2018-09-13T20:33:58.451Z,16.30
2018-09-13T20:36:26.902Z,16.30
2018-09-13T20:38:55.358Z,16.20
2018-09-13T20:41:23.800Z,16.10
2018-09-13T20:43:52.210Z,16.10
2018-09-13T20:46:20.636Z,16.10
2018-09-13T20:48:49.046Z,16.10
2018-09-13T20:51:17.663Z,16.10
2018-09-13T20:53:45.937Z,16.10
2018-09-13T20:56:14.385Z,16.00
2018-09-13T20:58:42.807Z,16.00
2018-09-13T21:01:11.246Z,16.00
2018-09-13T21:03:39.652Z,16.00
2018-09-13T21:06:08.102Z,16.10
2018-09-13T21:08:36.563Z,16.20
2018-09-13T21:11:04.979Z,16.20
2018-09-13T21:13:33.419Z,16.10
2018-09-13T21:16:01.879Z,16.10
2018-09-13T21:18:30.298Z,16.00
2018-09-13T21:20:58.799Z,15.90
2018-09-13T21:23:27.307Z,15.90
2018-09-13T21:25:55.830Z,15.90
2018-09-13T21:28:24.402Z,15.90
2018-09-13T21:30:52.885Z,15.90
2018-09-13T21:33:21.342Z,15.80
2018-09-13T21:35:49.803Z,15.80
2018-09-13T21:38:18.231Z,15.80
2018-09-13T21:40:46.809Z,15.70
2018-09-13T21:43:15.274Z,15.70
2018-09-13T21:45:43.710Z,15.70
2018-09-13T21:48:12.157Z,15.80
2018-09-13T21:50:40.602Z,15.80
2018-09-13T21:53:09.056Z,15.80
2018-09-13T21:55:37.482Z,15.80
2018-09-13T21:58:05.929Z,15.80
2018-09-13T22:00:34.670Z,15.80
2018-09-13T22:03:03.171Z,15.80
2018-09-13T22:05:31.600Z,15.80
2018-09-13T22:08:00.067Z,15.80
2018-09-13T22:10:28.494Z,15.80
2018-09-13T22:12:56.945Z,15.80
2018-09-13T22:15:25.495Z,15.80
2018-09-13T22:17:53.937Z,15.80
2018-09-13T22:20:22.337Z,15.70
2018-09-13T22:22:50.757Z,15.70
2018-09-13T22:25:19.167Z,15.60
2018-09-13T22:27:47.618Z,15.50
2018-09-13T22:30:16.034Z,15.50
2018-09-13T22:32:44.470Z,15.50
2018-09-13T22:35:12.915Z,15.40
2018-09-13T22:37:41.341Z,15.40
2018-09-13T22:40:09.514Z,15.30
2018-09-13T22:42:37.939Z,15.30
2018-09-13T22:45:06.398Z,15.30
2018-09-13T22:47:34.831Z,15.40
2018-09-13T22:50:03.293Z,15.40
2018-09-13T22:52:31.725Z,15.50
2018-09-13T22:55:00.137Z,15.50
2018-09-13T22:57:28.565Z,15.50
2018-09-13T22:59:56.965Z,15.60
2018-09-13T23:02:25.443Z,15.60
2018-09-13T23:04:53.862Z,15.60
2018-09-13T23:07:22.299Z,15.50
2018-09-13T23:09:50.714Z,15.40
2018-09-13T23:12:19.187Z,15.30
2018-09-13T23:14:47.618Z,15.30
2018-09-13T23:17:16.061Z,15.30
2018-09-13T23:19:44.514Z,15.30
2018-09-13T23:22:12.954Z,15.20
2018-09-13T23:24:41.400Z,15.10
2018-09-13T23:27:10.189Z,15.10
2018-09-13T23:29:38.821Z,15.10
2018-09-13T23:32:07.312Z,15.20
2018-09-13T23:34:35.742Z,15.20
2018-09-13T23:37:04.189Z,15.20
2018-09-13T23:39:32.763Z,15.30
2018-09-13T23:42:01.078Z,15.30
2018-09-13T23:44:29.509Z,15.30
2018-09-13T23:46:57.974Z,15.30
2018-09-13T23:49:26.400Z,15.10
2018-09-13T23:51:54.873Z,15.10
2018-09-13T23:54:23.297Z,15.00
2018-09-13T23:56:51.751Z,14.80
2018-09-13T23:59:20.169Z,14.80
